Time;durP1;ratioP1;P1;durP2;ratioP2;P2;SDS_P1;SDS_P2;PMS_P1;PMS_P2;Temp;Humidity;BMP_temperature;BMP_pressure;BME280_temperature;BME280_humidity;BME280_pressure;Samples;Min_cycle;Max_cycle;Signal;HPM_P1;HPM_P2
2023/05/20 00:02:07;;;;;;;2.25;1.98;;;;;;;17.06;43.18;97439.66;4866203;28;20172;-80
2023/05/20 00:04:32;;;;;;;1.88;1.38;;;;;;;16.99;43.63;97447.88;4854194;29;20278;-80
2023/05/20 00:06:58;;;;;;;3.38;1.98;;;;;;;17.13;43.88;97449.84;4886074;28;20180;-80
2023/05/20 00:09:23;;;;;;;3.08;1.90;;;;;;;17.00;44.00;97441.56;4853069;29;20410;-81
2023/05/20 00:11:49;;;;;;;3.42;2.60;;;;;;;16.89;44.51;97439.31;4839364;29;20195;-81
2023/05/20 00:14:14;;;;;;;3.85;1.73;;;;;;;16.90;44.45;97440.91;4851687;29;20631;-80
2023/05/20 00:16:40;;;;;;;3.72;2.08;;;;;;;17.03;44.26;97427.84;4867844;28;20245;-79
2023/05/20 00:19:06;;;;;;;4.43;1.73;;;;;;;16.97;43.98;97444.75;4868525;28;20214;-80
2023/05/20 00:21:32;;;;;;;2.03;1.70;;;;;;;16.82;44.67;97426.47;4850890;28;20165;-81
2023/05/20 00:23:58;;;;;;;1.95;1.60;;;;;;;16.96;44.38;97426.59;4868172;28;20554;-80
2023/05/20 00:26:23;;;;;;;2.95;1.92;;;;;;;16.83;44.73;97428.03;4854935;28;20466;-81
2023/05/20 00:28:52;;;;;;;1.52;1.33;;;;;;;16.94;44.73;97424.25;4870074;28;20410;-80
2023/05/20 00:31:17;;;;;;;3.78;1.83;;;;;;;16.87;44.32;97429.06;4854068;28;20284;-79
2023/05/20 00:33:43;;;;;;;3.78;1.70;;;;;;;16.84;44.81;97434.88;4885882;28;20406;-80
2023/05/20 00:36:08;;;;;;;2.70;1.70;;;;;;;16.99;44.22;97428.69;4853153;28;20211;-80
2023/05/20 00:38:33;;;;;;;3.13;2.10;;;;;;;16.65;45.51;97419.78;4868823;28;20335;-79
2023/05/20 00:40:59;;;;;;;2.47;1.77;;;;;;;16.74;44.87;97414.72;4868827;28;20272;-80
2023/05/20 00:43:25;;;;;;;2.90;2.08;;;;;;;16.70;45.32;97423.44;4869804;28;20223;-81
2023/05/20 00:45:52;;;;;;;3.67;1.70;;;;;;;16.72;45.44;97434.44;4868822;28;20415;-80
2023/05/20 00:48:17;;;;;;;3.97;2.30;;;;;;;16.82;45.31;97431.72;4867322;28;20439;-79
2023/05/20 00:50:43;;;;;;;2.35;1.90;;;;;;;16.88;45.16;97424.59;4868814;28;20235;-80
2023/05/20 00:53:09;;;;;;;2.55;1.70;;;;;;;16.73;45.52;97415.78;4868584;28;20113;-80
2023/05/20 00:55:34;;;;;;;1.90;1.70;;;;;;;16.68;45.62;97418.44;4868242;28;20366;-80
2023/05/20 00:58:00;;;;;;;2.55;2.05;;;;;;;16.77;45.47;97408.88;4867676;28;20181;-80
2023/05/20 01:00:25;;;;;;;2.22;1.85;;;;;;;16.77;45.48;97414.13;4882960;28;20280;-80
2023/05/20 01:02:51;;;;;;;2.78;2.17;;;;;;;16.77;45.67;97410.72;4898350;23;20225;-80
2023/05/20 01:05:16;;;;;;;2.53;1.90;;;;;;;16.67;45.76;97409.78;4932083;28;20278;-80
2023/05/20 01:07:42;;;;;;;3.67;2.03;;;;;;;16.84;45.61;97424.34;4908776;28;20139;-79
2023/05/20 01:10:08;;;;;;;3.35;1.90;;;;;;;16.67;45.88;97424.75;4902896;28;20300;-79
2023/05/20 01:12:37;;;;;;;2.83;2.00;;;;;;;16.63;46.16;97424.53;4931254;28;20179;-80
2023/05/20 01:15:07;;;;;;;4.65;2.20;;;;;;;16.76;45.89;97422.31;4917657;28;20293;-80
2023/05/20 01:17:36;;;;;;;4.63;3.08;;;;;;;16.62;46.03;97417.72;4912030;28;20273;-80
2023/05/20 01:20:03;;;;;;;9.25;5.93;;;;;;;16.78;46.21;97420.19;4917919;28;20211;-81
2023/05/20 01:22:28;;;;;;;4.05;2.67;;;;;;;16.56;46.19;97416.19;4938045;28;20198;-81
2023/05/20 01:24:54;;;;;;;4.43;3.28;;;;;;;16.64;46.42;97423.47;4914437;28;20780;-79
2023/05/20 01:27:23;;;;;;;2.80;2.45;;;;;;;16.61;46.06;97421.41;4913459;28;20216;-80
2023/05/20 01:29:50;;;;;;;4.30;2.90;;;;;;;16.68;46.35;97421.06;4911834;28;20668;-80
2023/05/20 01:32:19;;;;;;;2.47;2.00;;;;;;;16.61;46.54;97410.09;4929139;28;20272;-79
2023/05/20 01:34:47;;;;;;;4.25;2.20;;;;;;;16.53;46.52;97408.06;4932074;28;20479;-80
2023/05/20 01:37:13;;;;;;;3.85;2.20;;;;;;;16.39;46.68;97389.53;4894116;28;20166;-80
2023/05/20 01:39:40;;;;;;;6.13;3.95;;;;;;;16.31;47.14;97403.25;4940951;28;20247;-80
2023/05/20 01:42:07;;;;;;;4.72;2.33;;;;;;;16.32;47.34;97413.50;4920046;28;20451;-80
2023/05/20 01:44:33;;;;;;;3.50;2.50;;;;;;;16.19;47.29;97399.13;4918423;28;20280;-80
2023/05/20 01:46:58;;;;;;;3.53;2.03;;;;;;;16.16;47.30;97410.22;4896315;28;20339;-80
2023/05/20 01:49:24;;;;;;;2.72;1.92;;;;;;;16.20;47.41;97405.97;4936297;28;20192;-80
2023/05/20 01:51:49;;;;;;;2.50;2.30;;;;;;;16.20;47.35;97399.94;4914029;28;20299;-81
2023/05/20 01:54:15;;;;;;;4.05;2.65;;;;;;;16.12;47.74;97405.78;4913870;28;20182;-81
2023/05/20 01:56:40;;;;;;;3.65;2.33;;;;;;;16.07;48.18;97406.59;4923352;28;20189;-80
2023/05/20 01:59:05;;;;;;;3.15;2.30;;;;;;;16.03;47.88;97406.34;4937478;28;20220;-80
2023/05/20 02:01:31;;;;;;;3.83;2.83;;;;;;;16.03;48.06;97406.34;4896396;28;20668;-80
2023/05/20 02:03:56;;;;;;;4.35;2.45;;;;;;;15.92;48.27;97397.00;4926468;28;20344;-81
2023/05/20 02:06:22;;;;;;;5.63;2.67;;;;;;;15.82;48.61;97405.72;4913787;28;20197;-80
2023/05/20 02:08:47;;;;;;;3.75;2.40;;;;;;;15.85;48.51;97407.00;4929619;28;20192;-79
2023/05/20 02:11:12;;;;;;;3.38;2.40;;;;;;;15.85;48.45;97402.56;4907794;28;20255;-80
2023/05/20 02:13:38;;;;;;;2.75;2.00;;;;;;;15.87;48.50;97399.66;4928502;28;20299;-81
2023/05/20 02:16:04;;;;;;;2.85;2.55;;;;;;;15.78;48.87;97409.16;4914295;28;20264;-79
2023/05/20 02:18:31;;;;;;;2.70;2.33;;;;;;;15.76;49.01;97406.78;4922878;28;20197;-79
2023/05/20 02:21:04;;;;;;;3.30;1.88;;;;;;;15.77;49.16;97403.13;4926053;28;20353;-79
2023/05/20 02:23:33;;;;;;;2.97;2.30;;;;;;;15.66;49.06;97401.56;4922759;28;20542;-78
2023/05/20 02:25:59;;;;;;;3.22;2.35;;;;;;;15.75;49.13;97415.75;4885929;28;20175;-80
2023/05/20 02:28:24;;;;;;;2.47;2.25;;;;;;;15.73;49.18;97402.06;4914706;28;20255;-80
2023/05/20 02:30:50;;;;;;;3.38;2.00;;;;;;;15.58;49.55;97394.28;4935758;28;20291;-80
2023/05/20 02:33:16;;;;;;;2.90;2.60;;;;;;;15.42;50.20;97401.44;4892967;28;20323;-80
2023/05/20 02:35:41;;;;;;;2.33;2.13;;;;;;;15.40;49.74;97399.06;4927435;28;20295;-80
2023/05/20 02:38:07;;;;;;;3.90;2.65;;;;;;;15.39;50.12;97402.78;4912384;28;20217;-80
2023/05/20 02:40:33;;;;;;;4.88;2.28;;;;;;;15.33;50.29;97402.00;4917144;28;20204;-79
2023/05/20 02:42:59;;;;;;;3.42;2.78;;;;;;;15.32;50.40;97402.28;4915215;28;20699;-80
2023/05/20 02:45:25;;;;;;;2.67;2.45;;;;;;;15.14;50.70;97393.16;4928501;28;20202;-80
2023/05/20 02:47:50;;;;;;;4.88;2.90;;;;;;;15.21;50.58;97379.75;4926753;28;20182;-80
2023/05/20 02:50:16;;;;;;;3.53;2.75;;;;;;;15.03;50.99;97387.19;4923090;28;20323;-79
2023/05/20 02:52:45;;;;;;;4.35;2.60;;;;;;;15.11;51.30;97397.13;4908873;28;20197;-80
2023/05/20 02:55:10;;;;;;;3.20;2.90;;;;;;;15.00;50.79;97382.47;4929939;28;20336;-79
2023/05/20 02:57:39;;;;;;;3.40;2.35;;;;;;;14.77;51.76;97375.97;4931534;28;20240;-81
2023/05/20 03:00:06;;;;;;;3.13;2.80;;;;;;;14.86;52.15;97384.09;4915684;28;20228;-79
2023/05/20 03:02:32;;;;;;;3.70;2.70;;;;;;;14.65;52.55;97381.50;4932272;28;20162;-81
2023/05/20 03:04:58;;;;;;;2.90;2.33;;;;;;;14.65;52.59;97378.88;4917167;28;20208;-79
2023/05/20 03:07:24;;;;;;;4.63;2.80;;;;;;;14.55;53.04;97369.19;4913347;28;20084;-80
2023/05/20 03:09:49;;;;;;;5.95;2.60;;;;;;;14.54;53.25;97361.56;4914223;28;20190;-80
2023/05/20 03:12:15;;;;;;;3.88;2.92;;;;;;;14.63;52.94;97370.47;4899589;28;20558;-80
2023/05/20 03:14:40;;;;;;;3.90;3.25;;;;;;;14.42;53.62;97370.50;4926273;28;20866;-80
2023/05/20 03:17:06;;;;;;;3.38;3.08;;;;;;;14.64;52.99;97371.28;4893713;28;20216;-80
2023/05/20 03:19:31;;;;;;;3.72;3.03;;;;;;;14.38;53.37;97363.44;4911207;28;20311;-80
2023/05/20 03:21:57;;;;;;;3.67;3.15;;;;;;;14.47;53.59;97367.09;4900800;28;20341;-79
2023/05/20 03:24:22;;;;;;;3.88;3.13;;;;;;;14.45;53.83;97361.31;4906709;28;20684;-79
2023/05/20 03:26:48;;;;;;;3.72;2.90;;;;;;;14.30;53.86;97372.59;4923903;28;20236;-80
2023/05/20 03:29:16;;;;;;;4.65;3.03;;;;;;;14.32;54.43;97372.34;4912285;28;20276;-80
2023/05/20 03:31:42;;;;;;;3.28;2.85;;;;;;;14.06;55.33;97369.72;4919006;28;20717;-79
2023/05/20 03:34:07;;;;;;;4.45;3.35;;;;;;;14.25;54.61;97372.59;4928903;28;20294;-80
2023/05/20 03:36:33;;;;;;;4.03;2.95;;;;;;;14.33;54.10;97368.69;4929805;28;20284;-79
2023/05/20 03:38:58;;;;;;;4.75;2.80;;;;;;;14.28;54.97;97373.94;4888503;28;20671;-78
2023/05/20 03:41:25;;;;;;;3.85;3.28;;;;;;;14.16;54.54;97366.34;4928859;28;20195;-81
2023/05/20 03:43:50;;;;;;;3.90;3.13;;;;;;;14.16;54.67;97367.09;4918229;28;20204;-80
2023/05/20 03:46:15;;;;;;;4.97;3.53;;;;;;;14.18;55.07;97370.25;4915274;28;20184;-80
2023/05/20 03:48:41;;;;;;;3.50;3.20;;;;;;;14.24;54.39;97377.06;4897172;28;20206;-79
2023/05/20 03:51:06;;;;;;;3.17;2.63;;;;;;;14.11;54.60;97361.09;4928996;28;20244;-80
2023/05/20 03:53:32;;;;;;;3.53;3.22;;;;;;;14.11;54.63;97366.34;4894402;28;20362;-79
2023/05/20 03:55:57;;;;;;;3.95;3.45;;;;;;;14.15;55.25;97370.00;4927830;28;20192;-80
2023/05/20 03:58:22;;;;;;;4.40;3.80;;;;;;;14.27;55.33;97373.13;4930352;28;20284;-81
2023/05/20 04:00:48;;;;;;;3.45;3.10;;;;;;;14.07;55.13;97362.66;4910282;28;20289;-79
2023/05/20 04:03:14;;;;;;;3.72;3.22;;;;;;;14.08;55.77;97370.25;4910100;28;20205;-79
2023/05/20 04:05:40;;;;;;;5.47;3.10;;;;;;;14.04;55.51;97362.13;4908807;28;20201;-81
2023/05/20 04:08:05;;;;;;;4.05;3.55;;;;;;;14.04;56.07;97372.59;4929481;28;20675;-79
2023/05/20 04:10:31;;;;;;;3.47;3.17;;;;;;;14.00;55.53;97368.13;4918625;28;20198;-81
2023/05/20 04:13:06;;;;;;;3.50;3.13;;;;;;;13.76;57.09;97363.44;4915926;28;20094;-80
2023/05/20 04:15:34;;;;;;;7.70;4.95;;;;;;;14.03;56.48;97378.91;4910510;28;20211;-80
2023/05/20 04:18:00;;;;;;;6.22;3.70;;;;;;;13.95;57.06;97370.75;4915048;28;20178;-78
2023/05/20 04:20:25;;;;;;;8.30;7.32;;;;;;;13.98;56.92;97360.56;4925199;28;20114;-82
2023/05/20 04:22:51;;;;;;;8.70;7.65;;;;;;;14.03;56.92;97373.66;4922611;28;20210;-81
2023/05/20 04:25:16;;;;;;;7.75;6.97;;;;;;;14.03;56.77;97376.28;4908563;28;20277;-81
2023/05/20 04:27:42;;;;;;;9.38;7.85;;;;;;;14.05;56.59;97366.34;4913564;28;20228;-80
2023/05/20 04:30:09;;;;;;;13.38;10.80;;;;;;;14.06;56.65;97367.09;4902367;28;20194;-80
2023/05/20 04:32:34;;;;;;;10.25;9.25;;;;;;;14.08;57.12;97367.63;4910436;28;20084;-80
2023/05/20 04:35:06;;;;;;;11.98;9.90;;;;;;;14.18;55.75;97364.22;4912939;28;20197;-80
2023/05/20 04:37:32;;;;;;;6.88;4.88;;;;;;;14.25;56.90;97349.03;4925961;28;20222;-80
2023/05/20 04:39:57;;;;;;;14.40;12.85;;;;;;;14.00;57.73;97353.25;4933297;28;20298;-79
2023/05/20 04:42:26;;;;;;;6.32;5.72;;;;;;;14.13;56.62;97348.53;4930398;28;20225;-80
2023/05/20 04:44:52;;;;;;;6.78;5.40;;;;;;;14.23;56.89;97359.00;4920421;28;20554;-80
2023/05/20 04:47:17;;;;;;;6.05;5.45;;;;;;;14.29;57.47;97365.81;4908265;28;20271;-80
2023/05/20 04:49:44;;;;;;;5.50;3.83;;;;;;;14.13;56.81;97359.78;4942593;28;20325;-80
2023/05/20 04:52:09;;;;;;;5.82;3.67;;;;;;;14.28;57.16;97366.84;4891549;28;20247;-80
2023/05/20 04:54:35;;;;;;;4.97;3.75;;;;;;;14.42;57.07;97360.00;4918483;28;20267;-79
2023/05/20 04:57:03;;;;;;;6.65;4.13;;;;;;;14.45;57.32;97358.72;4893344;28;20716;-80
2023/05/20 04:59:28;;;;;;;5.15;4.25;;;;;;;14.41;57.26;97349.78;4905580;28;20193;-79
2023/05/20 05:01:54;;;;;;;5.13;4.65;;;;;;;14.31;57.13;97345.38;4912839;28;20095;-79
2023/05/20 05:04:19;;;;;;;5.10;3.97;;;;;;;14.56;56.95;97349.00;4912377;28;20129;-79
2023/05/20 05:06:47;;;;;;;4.80;4.07;;;;;;;14.76;55.75;97348.97;4929152;28;20716;-79
2023/05/20 05:09:12;;;;;;;4.93;3.85;;;;;;;14.85;56.07;97345.81;4917873;28;20652;-80
2023/05/20 05:11:38;;;;;;;4.78;3.40;;;;;;;14.88;55.83;97353.13;4910841;28;20190;-80
2023/05/20 05:14:03;;;;;;;4.07;3.65;;;;;;;14.76;56.15;97337.72;4928232;28;20651;-78
2023/05/20 05:16:29;;;;;;;7.45;4.13;;;;;;;14.84;56.08;97344.22;4912326;28;20271;-81
2023/05/20 05:18:54;;;;;;;4.53;4.07;;;;;;;15.04;56.12;97341.53;4915143;28;20201;-79
2023/05/20 05:21:20;;;;;;;6.40;4.03;;;;;;;15.17;55.22;97343.56;4895386;28;20201;-79
2023/05/20 05:23:45;;;;;;;4.72;4.10;;;;;;;15.05;55.20;97340.47;4896848;28;20195;-79
2023/05/20 05:26:11;;;;;;;4.82;3.70;;;;;;;15.33;55.06;97335.63;4926381;28;20278;-79
2023/05/20 05:28:36;;;;;;;4.80;3.75;;;;;;;15.47;54.30;97338.44;4924507;28;20206;-80
2023/05/20 05:31:02;;;;;;;4.18;3.78;;;;;;;15.51;54.88;97334.22;4925366;28;20204;-80
2023/05/20 05:33:29;;;;;;;4.47;4.07;;;;;;;15.60;54.27;97337.06;4930234;28;20162;-80
2023/05/20 05:35:57;;;;;;;4.47;4.07;;;;;;;15.48;54.98;97322.41;4901190;28;20682;-78
2023/05/20 05:38:23;;;;;;;4.45;4.05;;;;;;;15.50;55.29;97319.53;4924834;28;20720;-80
2023/05/20 05:40:49;;;;;;;6.90;3.67;;;;;;;15.54;54.85;97326.59;4930554;28;20226;-80
2023/05/20 05:43:15;;;;;;;5.03;3.80;;;;;;;15.70;54.77;97329.13;4930700;28;20360;-79
2023/05/20 05:45:42;;;;;;;5.22;3.85;;;;;;;15.52;54.98;97331.34;4903014;28;20284;-80
2023/05/20 05:48:07;;;;;;;4.22;3.80;;;;;;;15.60;54.52;97326.56;4907640;28;20368;-80
2023/05/20 05:50:32;;;;;;;4.93;3.65;;;;;;;15.98;54.27;97317.09;4896299;28;20224;-78
2023/05/20 05:52:58;;;;;;;4.88;4.10;;;;;;;16.10;53.45;97322.00;4925307;28;20339;-80
2023/05/20 05:55:23;;;;;;;4.20;3.80;;;;;;;16.15;53.89;97314.06;4915312;28;20361;-79
2023/05/20 05:57:50;;;;;;;4.30;3.30;;;;;;;16.43;53.71;97319.59;4902479;28;20233;-80
2023/05/20 06:00:15;;;;;;;4.57;3.47;;;;;;;16.55;52.54;97322.59;4930252;28;20189;-79
2023/05/20 06:02:41;;;;;;;4.70;3.78;;;;;;;16.60;53.05;97330.44;4929511;28;20220;-81
2023/05/20 06:05:07;;;;;;;4.38;3.88;;;;;;;16.44;52.98;97315.91;4924879;28;20723;-80
2023/05/20 06:07:32;;;;;;;4.82;4.30;;;;;;;16.41;52.86;97321.72;4911044;28;20608;-78
2023/05/20 06:09:58;;;;;;;4.47;3.80;;;;;;;16.68;53.40;97310.66;4929077;28;20185;-81
2023/05/20 06:12:25;;;;;;;4.95;4.18;;;;;;;16.74;52.17;97314.00;4914062;28;20281;-81
2023/05/20 06:14:51;;;;;;;5.03;3.90;;;;;;;16.42;53.51;97315.41;4926571;28;20374;-81
2023/05/20 06:17:16;;;;;;;4.43;4.03;;;;;;;16.66;52.79;97316.19;4898077;28;20618;-80
2023/05/20 06:19:42;;;;;;;4.85;4.05;;;;;;;16.64;53.07;97310.44;4914125;28;20165;-81
2023/05/20 06:22:07;;;;;;;4.30;3.90;;;;;;;16.95;51.70;97299.59;4910893;28;20210;-78
2023/05/20 06:24:33;;;;;;;4.50;3.72;;;;;;;16.87;52.23;97309.94;4914631;28;20224;-79
2023/05/20 06:26:58;;;;;;;5.00;4.20;;;;;;;16.98;52.37;97299.03;4928992;28;20293;-79
2023/05/20 06:29:23;;;;;;;4.53;3.95;;;;;;;17.33;51.64;97294.34;4898854;28;20208;-81
2023/05/20 06:31:49;;;;;;;4.53;4.13;;;;;;;16.93;52.57;97306.97;4929547;28;20365;-81
2023/05/20 06:34:14;;;;;;;4.68;4.28;;;;;;;16.93;52.31;97301.72;4898258;28;20682;-80
2023/05/20 06:36:40;;;;;;;4.35;3.92;;;;;;;17.51;51.41;97310.41;4913920;28;20209;-80
2023/05/20 06:39:11;;;;;;;4.93;4.43;;;;;;;17.45;51.61;97307.06;4915116;28;20212;-81
2023/05/20 06:41:37;;;;;;;5.03;4.53;;;;;;;17.97;50.53;97315.00;4915063;28;20222;-81
2023/05/20 06:44:02;;;;;;;4.93;4.53;;;;;;;17.85;51.01;97315.41;4896816;28;20091;-80
2023/05/20 06:46:28;;;;;;;5.93;4.00;;;;;;;17.76;50.70;97315.28;4919743;28;20285;-79
2023/05/20 06:48:53;;;;;;;4.13;3.78;;;;;;;17.73;51.37;97313.22;4914559;28;20106;-81
2023/05/20 06:51:19;;;;;;;4.75;4.25;;;;;;;17.63;51.58;97317.88;4887354;28;20189;-80
2023/05/20 06:53:44;;;;;;;4.65;4.20;;;;;;;17.24;51.68;97306.59;4919641;28;20214;-80
2023/05/20 06:56:09;;;;;;;4.82;4.18;;;;;;;17.32;52.22;97305.16;4931138;28;20348;-80
2023/05/20 06:58:35;;;;;;;6.18;4.50;;;;;;;17.28;52.99;97291.78;4910767;28;20106;-80
2023/05/20 07:01:00;;;;;;;5.10;4.57;;;;;;;17.51;51.64;97297.25;4911515;28;20290;-80
2023/05/20 07:03:26;;;;;;;4.82;4.38;;;;;;;17.44;51.91;97299.47;4917871;28;20253;-80
2023/05/20 07:05:51;;;;;;;5.00;4.50;;;;;;;17.65;52.22;97299.94;4898913;28;20044;-81
2023/05/20 07:08:17;;;;;;;5.55;5.05;;;;;;;17.60;51.78;97287.66;4929300;28;20247;-79
2023/05/20 07:10:42;;;;;;;6.05;4.47;;;;;;;17.52;52.25;97298.81;4907420;28;20359;-78
2023/05/20 07:13:07;;;;;;;5.35;4.50;;;;;;;17.46;52.13;97298.13;4910495;28;20185;-81
2023/05/20 07:15:33;;;;;;;5.35;4.50;;;;;;;17.72;52.23;97303.00;4912613;28;20716;-79
2023/05/20 07:17:58;;;;;;;5.07;4.63;;;;;;;17.66;51.87;97306.78;4914722;28;20187;-79
2023/05/20 07:20:24;;;;;;;6.57;5.70;;;;;;;17.65;52.37;97292.84;4895563;28;20325;-80
2023/05/20 07:22:49;;;;;;;10.13;7.55;;;;;;;17.50;52.58;97287.81;4894657;28;20304;-81
2023/05/20 07:25:15;;;;;;;5.45;4.63;;;;;;;17.82;51.61;97296.78;4914301;28;20189;-79
2023/05/20 07:27:40;;;;;;;6.90;6.20;;;;;;;17.92;51.47;97294.81;4932440;28;20278;-79
2023/05/20 07:30:07;;;;;;;6.07;5.47;;;;;;;17.75;51.97;97292.69;4928217;28;20689;-81
2023/05/20 07:32:32;;;;;;;5.78;5.05;;;;;;;17.81;52.39;97297.88;4914509;28;20209;-80
2023/05/20 07:34:58;;;;;;;5.32;4.82;;;;;;;17.87;52.08;97291.47;4913035;28;20265;-81
2023/05/20 07:37:23;;;;;;;4.72;4.25;;;;;;;18.04;52.13;97298.81;4896250;28;20294;-80
2023/05/20 07:39:49;;;;;;;4.85;4.30;;;;;;;18.15;51.96;97295.72;4914032;28;20650;-80
2023/05/20 07:42:14;;;;;;;6.90;4.78;;;;;;;18.05;51.70;97293.25;4914895;28;20230;-80
2023/05/20 07:44:40;;;;;;;5.90;5.30;;;;;;;17.71;52.59;97289.03;4905225;28;20156;-80
2023/05/20 07:47:05;;;;;;;5.82;4.88;;;;;;;17.76;52.89;97285.56;4913735;28;20204;-79
2023/05/20 07:49:30;;;;;;;6.35;4.95;;;;;;;17.88;52.74;97283.28;4913486;28;20241;-81
2023/05/20 07:51:56;;;;;;;5.15;4.75;;;;;;;18.13;51.85;97279.44;4939440;28;20338;-80
2023/05/20 07:54:22;;;;;;;5.35;4.70;;;;;;;18.31;52.18;97287.53;4932654;28;20596;-81
2023/05/20 07:56:47;;;;;;;6.15;5.30;;;;;;;18.01;52.34;97279.13;4911504;28;20197;-81
2023/05/20 07:59:13;;;;;;;4.97;4.47;;;;;;;18.06;52.71;97281.66;4909326;28;20212;-80
2023/05/20 08:01:40;;;;;;;5.13;4.63;;;;;;;18.32;52.06;97278.56;4923445;28;20623;-80
2023/05/20 08:04:05;;;;;;;5.03;4.53;;;;;;;18.24;52.09;97282.66;4932162;28;20190;-80
2023/05/20 08:06:31;;;;;;;5.38;4.88;;;;;;;18.23;52.46;97280.31;4908242;28;20194;-80
2023/05/20 08:08:56;;;;;;;6.03;5.25;;;;;;;18.19;52.51;97282.75;4945882;28;20220;-80
2023/05/20 08:11:22;;;;;;;5.70;5.13;;;;;;;17.63;52.97;97273.88;4929438;28;20619;-82
2023/05/20 08:13:47;;;;;;;7.03;5.55;;;;;;;17.85;53.09;97280.41;4915513;28;20201;-80
2023/05/20 08:16:13;;;;;;;7.20;5.35;;;;;;;17.98;52.96;97281.56;4928812;28;20258;-80
2023/05/20 08:18:39;;;;;;;9.07;5.55;;;;;;;18.04;52.99;97283.78;4911888;28;20306;-79
2023/05/20 08:21:08;;;;;;;6.38;5.78;;;;;;;17.91;53.19;97287.19;4912877;28;20583;-81
2023/05/20 08:23:34;;;;;;;5.43;4.55;;;;;;;18.04;53.11;97278.50;4912573;28;20127;-80
2023/05/20 08:26:02;;;;;;;8.65;6.50;;;;;;;18.09;52.51;97273.16;4917495;28;20183;-80
2023/05/20 08:28:28;;;;;;;7.95;6.00;;;;;;;18.31;52.65;97279.63;4913673;28;20163;-80
2023/05/20 08:30:54;;;;;;;5.90;5.20;;;;;;;18.50;52.44;97285.59;4895352;28;20214;-80
2023/05/20 08:33:21;;;;;;;6.35;5.65;;;;;;;18.28;52.22;97298.66;4911884;28;20219;-80
2023/05/20 08:35:47;;;;;;;6.15;5.47;;;;;;;18.43;52.13;97292.34;4912795;28;20202;-80
2023/05/20 08:38:12;;;;;;;6.38;5.78;;;;;;;18.23;52.63;97298.75;4898119;28;20241;-79
2023/05/20 08:40:38;;;;;;;6.88;5.25;;;;;;;18.45;52.02;97283.06;4931854;28;20226;-80
2023/05/20 08:43:03;;;;;;;8.50;6.82;;;;;;;18.44;51.90;97284.16;4909989;28;20308;-81
2023/05/20 08:45:31;;;;;;;6.00;5.40;;;;;;;18.65;52.90;97289.03;4924583;28;20190;-80
2023/05/20 08:47:57;;;;;;;6.82;5.65;;;;;;;18.48;52.04;97279.06;4909451;28;20313;-79
2023/05/20 08:50:22;;;;;;;6.07;5.13;;;;;;;18.55;52.31;97287.34;4914756;28;20224;-79
2023/05/20 08:52:48;;;;;;;8.40;6.25;;;;;;;18.57;52.59;97279.16;4905930;28;20183;-79
2023/05/20 08:55:23;;;;;;;6.78;6.07;;;;;;;18.84;51.97;97278.41;4896799;28;20339;-80
2023/05/20 08:57:53;;;;;;;8.40;5.38;;;;;;;18.86;52.24;97279.66;4894747;28;20179;-80
2023/05/20 09:00:26;;;;;;;8.88;5.90;;;;;;;18.66;52.13;97287.94;4910978;28;20187;-79
2023/05/20 09:02:52;;;;;;;8.63;6.30;;;;;;;18.44;52.16;97278.06;4909096;28;20335;-80
2023/05/20 09:05:18;;;;;;;6.38;5.78;;;;;;;18.83;51.61;97272.34;4913134;28;20219;-79
2023/05/20 09:07:43;;;;;;;7.15;6.10;;;;;;;18.83;51.46;97280.25;4874017;28;20344;-80
2023/05/20 09:10:09;;;;;;;7.10;5.90;;;;;;;18.92;51.39;97277.69;4907549;28;20510;-80
2023/05/20 09:12:36;;;;;;;6.55;5.22;;;;;;;19.09;50.88;97267.31;4911810;28;20194;-81
2023/05/20 09:15:02;;;;;;;7.90;5.40;;;;;;;19.77;50.28;97256.00;4899312;28;20193;-80
2023/05/20 09:17:27;;;;;;;6.28;5.68;;;;;;;20.24;49.24;97260.91;4914780;28;20280;-80
2023/05/20 09:19:53;;;;;;;6.45;5.85;;;;;;;20.87;48.08;97264.22;4886451;28;20348;-81
2023/05/20 09:22:25;;;;;;;5.95;5.30;;;;;;;21.07;46.80;97252.28;4923936;28;20158;-81
2023/05/20 09:24:51;;;;;;;7.25;5.10;;;;;;;20.84;47.16;97249.00;4909164;28;20291;-79
2023/05/20 09:27:20;;;;;;;6.00;5.40;;;;;;;20.94;47.26;97257.41;4897592;28;20262;-82
2023/05/20 09:29:52;;;;;;;6.25;5.65;;;;;;;20.88;47.01;97253.34;4920048;28;20315;-78
2023/05/20 09:32:22;;;;;;;6.38;5.78;;;;;;;21.14;47.62;97258.66;4913545;28;20193;-81
2023/05/20 09:34:48;;;;;;;6.03;5.45;;;;;;;21.21;47.06;97254.78;4901473;28;20415;-83
2023/05/20 09:37:17;;;;;;;6.40;5.80;;;;;;;21.17;46.49;97253.84;4913762;28;20212;-81
2023/05/20 09:39:56;;;;;;;6.63;6.03;;;;;;;21.48;46.70;97254.47;4917076;28;20286;-79
2023/05/20 09:42:27;;;;;;;5.80;5.20;;;;;;;21.72;45.16;97245.25;4927802;28;20279;-81
2023/05/20 09:44:54;;;;;;;6.40;5.80;;;;;;;21.81;45.66;97251.28;4896471;28;20216;-81
2023/05/20 09:47:19;;;;;;;6.32;5.72;;;;;;;21.85;45.09;97243.53;4914624;28;20171;-79
2023/05/20 09:49:46;;;;;;;6.07;5.55;;;;;;;22.24;45.49;97247.75;4915471;28;20277;-80
2023/05/20 09:52:14;;;;;;;5.78;5.28;;;;;;;22.86;44.19;97240.25;4913332;28;20677;-80
2023/05/20 09:54:40;;;;;;;7.68;5.55;;;;;;;23.29;43.11;97241.84;4907334;28;20169;-80
2023/05/20 09:57:06;;;;;;;6.25;5.65;;;;;;;23.37;42.63;97232.22;4894737;28;20205;-79
2023/05/20 09:59:32;;;;;;;5.20;4.70;;;;;;;23.77;42.18;97233.56;4925180;28;20644;-81
2023/05/20 10:01:57;;;;;;;7.28;6.57;;;;;;;22.83;42.10;97242.78;4899731;28;20146;-79
2023/05/20 10:04:24;;;;;;;6.57;6.00;;;;;;;23.04;42.98;97234.81;4897165;28;20266;-79
2023/05/20 10:07:08;;;;;;;6.45;5.95;;;;;;;22.84;43.42;97237.13;4914182;28;20719;-78
2023/05/20 10:09:36;;;;;;;11.25;10.00;;;;;;;23.14;42.70;97227.25;4912499;28;20209;-78
2023/05/20 10:12:11;;;;;;;18.63;16.67;;;;;;;23.54;42.39;97228.63;4899572;28;20676;-78
2023/05/20 10:15:03;;;;;;;11.38;10.35;;;;;;;23.02;42.93;97221.09;4931577;28;20218;-82
2023/05/20 10:17:35;;;;;;;7.13;6.53;;;;;;;23.19;42.67;97216.44;4917882;28;20630;-81
2023/05/20 10:20:00;;;;;;;7.07;6.43;;;;;;;22.56;43.77;97226.25;4928874;28;20218;-80
2023/05/20 10:22:35;;;;;;;7.78;7.07;;;;;;;23.25;42.87;97224.97;4923538;28;20751;-79
2023/05/20 10:25:06;;;;;;;7.07;6.47;;;;;;;23.48;42.76;97217.44;4914239;28;20355;-80
2023/05/20 10:27:45;;;;;;;7.43;6.72;;;;;;;23.89;41.44;97209.72;4917339;28;20532;-80
2023/05/20 10:30:18;;;;;;;6.35;5.72;;;;;;;23.95;41.97;97207.59;4914025;28;20213;-80
2023/05/20 10:32:59;;;;;;;7.97;6.50;;;;;;;24.28;41.49;97210.16;4924975;28;20304;-80
2023/05/20 10:35:25;;;;;;;7.25;6.65;;;;;;;24.48;40.26;97198.59;4930404;28;20263;-81
2023/05/20 10:37:53;;;;;;;7.38;6.68;;;;;;;23.77;41.45;97206.97;4915813;28;20349;-83
2023/05/20 10:40:21;;;;;;;7.50;6.80;;;;;;;23.58;42.11;97202.16;4931730;28;20190;-80
2023/05/20 10:42:47;;;;;;;7.60;6.90;;;;;;;22.86;42.84;97203.09;4925857;28;20206;-82
2023/05/20 10:45:26;;;;;;;8.10;7.30;;;;;;;23.39;42.95;97208.78;4927070;28;20133;-78
2023/05/20 10:47:56;;;;;;;7.32;6.63;;;;;;;23.43;43.10;97206.25;4881969;28;20225;-77
2023/05/20 10:50:35;;;;;;;6.70;6.10;;;;;;;23.79;43.75;97199.47;4921944;28;20186;-77
2023/05/20 10:53:04;;;;;;;6.90;6.30;;;;;;;23.05;42.33;97204.50;4912231;28;20242;-78
2023/05/20 10:55:40;;;;;;;7.20;6.60;;;;;;;23.62;42.62;97193.22;4906702;28;20197;-80
2023/05/20 10:58:06;;;;;;;6.95;6.35;;;;;;;23.97;42.65;97198.16;4914030;28;20221;-79
2023/05/20 11:00:36;;;;;;;6.97;6.38;;;;;;;23.63;41.78;97184.16;4896582;28;20697;-77
2023/05/20 11:03:02;;;;;;;7.00;6.40;;;;;;;23.29;42.10;97194.03;4929164;28;20194;-77
2023/05/20 11:05:28;;;;;;;7.63;7.03;;;;;;;22.69;44.11;97193.38;4914133;28;20264;-77
2023/05/20 11:08:02;;;;;;;7.13;6.18;;;;;;;23.18;43.17;97195.50;4903894;28;20312;-78
2023/05/20 11:10:27;;;;;;;8.23;7.40;;;;;;;22.30;44.15;97202.50;4896516;28;20697;-79
2023/05/20 11:12:53;;;;;;;9.95;8.98;;;;;;;22.37;45.10;97195.59;4925597;28;20250;-80
2023/05/20 11:15:19;;;;;;;8.25;7.53;;;;;;;22.38;45.00;97194.50;4912269;28;20633;-82
2023/05/20 11:17:55;;;;;;;7.47;6.78;;;;;;;22.13;44.04;97187.44;4913303;28;20291;-79
2023/05/20 11:20:24;;;;;;;8.90;8.10;;;;;;;22.49;44.26;97194.91;4902968;28;20333;-81
2023/05/20 11:22:50;;;;;;;7.35;6.68;;;;;;;22.33;44.51;97181.44;4904554;28;20773;-81
2023/05/20 11:25:17;;;;;;;7.70;7.10;;;;;;;22.10;44.89;97177.44;4911600;28;20195;-78
2023/05/20 11:27:43;;;;;;;6.53;5.93;;;;;;;22.48;44.28;97179.31;4896582;28;20276;-80
2023/05/20 11:30:10;;;;;;;7.05;6.45;;;;;;;22.23;45.35;97181.75;4903855;28;20637;-80
2023/05/20 11:32:36;;;;;;;11.20;8.98;;;;;;;21.84;45.69;97192.34;4896030;28;20245;-81